Forest Oaks, North Carolina
Current Conditions -  °F | °C
As of 9:54 AM on Saturday 25 Oct 2014 (Local Time) from KGSO Reporting Station
Clear Clear  
Wind Chill: 56°   Ceiling: Unl
Heat Index: 56°   Visibility: 10mi
Dew Point: 42°   Wind: 0mph
Humidity: 60%   Direction: NA
Pressure: 30.04"   Gusts: NA
Location:  36°N, 79.7628°W
Report Text: KGSO 251354Z 00000KT 10SM CLR 13/06 A3004 RMK AO2 SLP170 T01330056
Loading
Personal Weather Stations






























Interactive Weather Map
Tropical Storm Tracking
New forecast layout! Learn more

10-Day Weather Forecast

Advertisements
Track Severe Weather on mobile